Airport View

Enter AWOS ICAO identifier for current METAR.

ex. KFNL

KPWA 221753Z 04019G26KT 10SM FEW033 30/18 A3014 RMK AO2 PK WND 01027/1710 SLP186 T03000183 10300 20228 50004

22 Jul 2019 18:13

Phone: 405-798-2013

Other Area AWOS: KHSD - KOKC - KRCE - KTIK

TAF KOKC 221720Z 2218/2318 03016G24KT P6SM BKN028 FM222000 04016G23KT P6SM SKC FM230300 02009KT P6SM SCT250